Time;durP1;ratioP1;P1;durP2;ratioP2;P2;SDS_P1;SDS_P2;PMS_P1;PMS_P2;Temp;Humidity;BMP_temperature;BMP_pressure;BME280_temperature;BME280_humidity;BME280_pressure;Samples;Min_cycle;Max_cycle;Signal;HPM_P1;HPM_P2
2023/12/13 00:01:58;;;;;;;0.20;0.20;;;;;;;;;;6291785;28;20391;-82
2023/12/13 00:04:58;;;;;;;0.20;0.20;;;;;;;;;;6295432;28;20036;-82
2023/12/13 00:07:58;;;;;;;0.20;0.20;;;;;;;;;;6297498;28;20020;-82
2023/12/13 00:10:59;;;;;;;0.20;0.20;;;;;;;;;;6290001;28;20020;-82
2023/12/13 00:13:59;;;;;;;0.20;0.20;;;;;;;;;;6282254;28;20008;-89
2023/12/13 00:16:59;;;;;;;0.20;0.20;;;;;;;;;;6302252;28;20372;-89
2023/12/13 00:20:00;;;;;;;0.20;0.20;;;;;;;;;;6295542;28;20024;-90
2023/12/13 00:23:00;;;;;;;0.20;0.20;;;;;;;;;;6277145;28;20027;-89
2023/12/13 00:26:00;;;;;;;0.20;0.20;;;;;;;;;;6295062;28;20017;-89
2023/12/13 00:29:00;;;;;;;0.20;0.20;;;;;;;;;;6309308;28;20438;-89
2023/12/13 00:32:01;;;;;;;0.20;0.20;;;;;;;;;;6294679;28;20360;-89
2023/12/13 00:35:01;;;;;;;0.20;0.20;;;;;;;;;;6265582;28;20025;-88
2023/12/13 00:38:02;;;;;;;0.20;0.20;;;;;;;;;;6275358;28;20024;-88
2023/12/13 00:41:03;;;;;;;0.20;0.20;;;;;;;;;;6293635;28;20021;-88
2023/12/13 00:44:03;;;;;;;0.20;0.20;;;;;;;;;;6294506;28;20031;-88
2023/12/13 00:47:03;;;;;;;0.20;0.20;;;;;;;;;;6289086;28;20016;-88
2023/12/13 00:50:05;;;;;;;0.20;0.20;;;;;;;;;;6294830;28;20471;-88
2023/12/13 00:53:05;;;;;;;0.20;0.20;;;;;;;;;;6276439;28;20036;-88
2023/12/13 00:56:06;;;;;;;0.20;0.20;;;;;;;;;;6294437;28;20055;-88
2023/12/13 00:59:06;;;;;;;0.30;0.30;;;;;;;;;;6294377;28;20024;-88
2023/12/13 01:02:07;;;;;;;0.30;0.30;;;;;;;;;;6282778;28;20060;-88
2023/12/13 01:05:07;;;;;;;0.27;0.27;;;;;;;;;;6293817;28;20033;-88
2023/12/13 01:08:08;;;;;;;0.20;0.20;;;;;;;;;;6293416;28;20016;-87
2023/12/13 01:11:09;;;;;;;0.20;0.20;;;;;;;;;;6303340;28;20031;-88
2023/12/13 01:14:09;;;;;;;0.20;0.20;;;;;;;;;;6284967;28;20024;-88
2023/12/13 01:17:11;;;;;;;0.30;0.30;;;;;;;;;;6298974;28;20414;-88
2023/12/13 01:20:11;;;;;;;0.20;0.20;;;;;;;;;;6293026;28;20364;-88
2023/12/13 01:23:12;;;;;;;0.20;0.20;;;;;;;;;;6293423;28;20024;-80
2023/12/13 01:26:12;;;;;;;0.20;0.20;;;;;;;;;;6275654;28;20055;-81
2023/12/13 01:29:12;;;;;;;0.20;0.20;;;;;;;;;;6293267;28;20024;-81
2023/12/13 01:32:12;;;;;;;0.27;0.27;;;;;;;;;;6289511;28;20055;-81
2023/12/13 01:35:13;;;;;;;0.20;0.20;;;;;;;;;;6288257;28;20109;-81
2023/12/13 01:38:13;;;;;;;0.20;0.20;;;;;;;;;;6284766;28;20068;-81
2023/12/13 01:41:13;;;;;;;0.20;0.20;;;;;;;;;;6293694;28;20020;-81
2023/12/13 01:44:13;;;;;;;0.20;0.20;;;;;;;;;;6290796;28;20066;-81
2023/12/13 01:47:14;;;;;;;0.20;0.20;;;;;;;;;;6297416;28;20024;-81
2023/12/13 01:50:14;;;;;;;0.20;0.20;;;;;;;;;;6300134;28;20040;-81
2023/12/13 01:53:15;;;;;;;0.20;0.20;;;;;;;;;;6279090;28;20064;-81
2023/12/13 01:56:16;;;;;;;0.20;0.20;;;;;;;;;;6291830;28;20048;-82
2023/12/13 01:59:16;;;;;;;0.20;0.20;;;;;;;;;;6292658;28;20016;-82
2023/12/13 02:02:16;;;;;;;0.20;0.20;;;;;;;;;;6290862;28;20508;-82
2023/12/13 02:05:17;;;;;;;0.20;0.20;;;;;;;;;;6292019;28;20044;-82
2023/12/13 02:08:17;;;;;;;0.20;0.20;;;;;;;;;;6274444;28;20031;-82
2023/12/13 02:11:18;;;;;;;0.20;0.20;;;;;;;;;;6292452;28;20066;-82
2023/12/13 02:14:18;;;;;;;0.20;0.20;;;;;;;;;;6291598;28;20052;-81
2023/12/13 02:17:18;;;;;;;0.20;0.20;;;;;;;;;;6292762;28;20469;-82
2023/12/13 02:20:19;;;;;;;0.20;0.20;;;;;;;;;;6290301;28;20012;-82
2023/12/13 02:23:20;;;;;;;0.20;0.20;;;;;;;;;;6293714;28;20069;-81
2023/12/13 02:26:20;;;;;;;0.20;0.20;;;;;;;;;;6291660;28;20013;-82
2023/12/13 02:29:20;;;;;;;0.20;0.20;;;;;;;;;;6291876;28;20486;-82
2023/12/13 02:32:20;;;;;;;0.20;0.20;;;;;;;;;;6292515;28;20035;-82
2023/12/13 02:35:21;;;;;;;0.20;0.20;;;;;;;;;;6273846;28;20444;-81
2023/12/13 02:38:21;;;;;;;0.20;0.20;;;;;;;;;;6273696;28;20044;-82
2023/12/13 02:41:22;;;;;;;0.30;0.30;;;;;;;;;;6293514;28;20060;-82
2023/12/13 02:44:22;;;;;;;0.20;0.20;;;;;;;;;;6273696;28;20027;-82
2023/12/13 02:47:25;;;;;;;0.20;0.20;;;;;;;;;;6273534;28;20013;-82
2023/12/13 02:50:25;;;;;;;0.20;0.20;;;;;;;;;;6273499;28;20028;-82
2023/12/13 02:53:26;;;;;;;0.20;0.20;;;;;;;;;;6281895;28;20021;-89
2023/12/13 02:56:26;;;;;;;0.20;0.20;;;;;;;;;;6291670;28;20017;-89
2023/12/13 02:59:26;;;;;;;0.20;0.20;;;;;;;;;;6291625;28;20052;-89
2023/12/13 03:02:28;;;;;;;0.20;0.20;;;;;;;;;;6268198;28;20026;-89
2023/12/13 03:05:28;;;;;;;0.20;0.20;;;;;;;;;;6299524;28;20047;-88
2023/12/13 03:08:28;;;;;;;0.20;0.20;;;;;;;;;;6292331;28;20024;-89
2023/12/13 03:11:29;;;;;;;0.20;0.20;;;;;;;;;;6321431;28;20013;-89
2023/12/13 03:14:29;;;;;;;0.20;0.20;;;;;;;;;;6262456;28;20023;-83
2023/12/13 03:17:29;;;;;;;0.20;0.20;;;;;;;;;;6296687;28;20086;-83
2023/12/13 03:20:30;;;;;;;0.20;0.20;;;;;;;;;;6296344;28;20397;-83
2023/12/13 03:23:30;;;;;;;0.20;0.20;;;;;;;;;;6295751;28;20648;-81
2023/12/13 03:26:31;;;;;;;0.20;0.20;;;;;;;;;;6310236;28;20058;-80
2023/12/13 03:29:32;;;;;;;0.20;0.20;;;;;;;;;;6309460;28;20020;-80
2023/12/13 03:32:32;;;;;;;0.20;0.20;;;;;;;;;;6292978;28;20024;-80
2023/12/13 03:35:33;;;;;;;0.20;0.20;;;;;;;;;;6309856;28;20021;-80
2023/12/13 03:38:33;;;;;;;0.20;0.20;;;;;;;;;;6295651;28;20471;-80
2023/12/13 03:41:34;;;;;;;0.20;0.20;;;;;;;;;;6292823;28;20476;-80
2023/12/13 03:44:34;;;;;;;0.20;0.20;;;;;;;;;;6308090;28;20025;-80
2023/12/13 03:47:34;;;;;;;0.20;0.20;;;;;;;;;;6295409;28;20008;-80
2023/12/13 03:50:35;;;;;;;0.20;0.20;;;;;;;;;;6295624;28;20017;-80
2023/12/13 03:53:38;;;;;;;0.20;0.20;;;;;;;;;;6295355;28;20020;-80
2023/12/13 03:56:38;;;;;;;0.20;0.20;;;;;;;;;;6295998;28;20107;-81
2023/12/13 03:59:38;;;;;;;0.20;0.20;;;;;;;;;;6306358;28;20030;-81
2023/12/13 04:02:38;;;;;;;0.20;0.20;;;;;;;;;;6297274;28;20017;-81
2023/12/13 04:05:39;;;;;;;0.20;0.20;;;;;;;;;;6295494;28;20558;-81
2023/12/13 04:08:39;;;;;;;0.20;0.20;;;;;;;;;;6277195;28;20008;-81
2023/12/13 04:11:39;;;;;;;0.20;0.20;;;;;;;;;;6291999;28;20017;-80
2023/12/13 04:14:39;;;;;;;0.20;0.20;;;;;;;;;;6265544;28;20017;-80
2023/12/13 04:17:40;;;;;;;0.20;0.20;;;;;;;;;;6293947;28;20017;-80
2023/12/13 04:20:41;;;;;;;0.20;0.20;;;;;;;;;;6295324;28;20422;-80
2023/12/13 04:23:41;;;;;;;0.10;0.10;;;;;;;;;;6294928;28;20012;-84
2023/12/13 04:26:42;;;;;;;0.20;0.20;;;;;;;;;;6277134;28;20459;-84
2023/12/13 04:29:43;;;;;;;0.20;0.20;;;;;;;;;;6294681;28;20103;-84
2023/12/13 04:32:43;;;;;;;0.20;0.20;;;;;;;;;;6295324;28;20077;-84
2023/12/13 04:35:44;;;;;;;0.20;0.20;;;;;;;;;;6291078;28;20380;-83
2023/12/13 04:38:44;;;;;;;0.20;0.20;;;;;;;;;;6300572;28;20061;-83
2023/12/13 04:41:44;;;;;;;0.20;0.20;;;;;;;;;;6293732;28;20099;-83
2023/12/13 04:44:45;;;;;;;0.20;0.20;;;;;;;;;;6276796;28;20033;-83
2023/12/13 04:47:45;;;;;;;0.20;0.20;;;;;;;;;;6302628;28;20367;-83
2023/12/13 04:50:46;;;;;;;0.20;0.20;;;;;;;;;;6272212;28;20031;-83
2023/12/13 04:53:46;;;;;;;0.20;0.20;;;;;;;;;;6275958;28;20390;-83
2023/12/13 04:56:46;;;;;;;0.20;0.20;;;;;;;;;;6276586;28;20028;-83
2023/12/13 04:59:46;;;;;;;0.20;0.20;;;;;;;;;;6294388;28;20024;-83
2023/12/13 05:02:47;;;;;;;0.20;0.20;;;;;;;;;;6269846;28;20034;-83
2023/12/13 05:05:47;;;;;;;0.20;0.20;;;;;;;;;;6295800;28;20092;-83
2023/12/13 05:08:47;;;;;;;0.20;0.20;;;;;;;;;;6280167;28;20116;-83
2023/12/13 05:11:48;;;;;;;0.20;0.20;;;;;;;;;;6294051;28;20588;-83
2023/12/13 05:14:48;;;;;;;0.20;0.20;;;;;;;;;;6290600;28;20039;-83
2023/12/13 05:17:49;;;;;;;0.20;0.20;;;;;;;;;;6272202;28;20144;-83
2023/12/13 05:20:49;;;;;;;0.20;0.20;;;;;;;;;;6293942;28;20060;-83
2023/12/13 05:23:49;;;;;;;0.20;0.20;;;;;;;;;;6278360;28;20405;-83
2023/12/13 05:26:50;;;;;;;0.20;0.20;;;;;;;;;;6295153;28;20470;-83
2023/12/13 05:29:50;;;;;;;0.20;0.20;;;;;;;;;;6289768;28;20021;-83
2023/12/13 05:32:53;;;;;;;0.20;0.20;;;;;;;;;;6283993;28;20025;-80
2023/12/13 05:35:53;;;;;;;0.20;0.20;;;;;;;;;;6274799;28;20498;-80
2023/12/13 05:38:53;;;;;;;0.20;0.20;;;;;;;;;;6292861;28;20029;-80
2023/12/13 05:41:56;;;;;;;0.20;0.20;;;;;;;;;;6291711;28;20121;-80
2023/12/13 05:44:56;;;;;;;0.20;0.20;;;;;;;;;;6292116;28;20032;-80
2023/12/13 05:47:58;;;;;;;0.20;0.20;;;;;;;;;;6274073;28;20012;-80
2023/12/13 05:50:58;;;;;;;0.20;0.20;;;;;;;;;;6293225;28;20024;-79
2023/12/13 05:53:59;;;;;;;0.20;0.20;;;;;;;;;;6283068;28;20537;-80
2023/12/13 05:56:59;;;;;;;0.20;0.20;;;;;;;;;;6289238;28;20105;-80
2023/12/13 05:59:59;;;;;;;0.20;0.20;;;;;;;;;;6293505;28;20486;-80
2023/12/13 06:03:00;;;;;;;0.20;0.20;;;;;;;;;;6290958;28;20092;-80
2023/12/13 06:06:00;;;;;;;0.20;0.20;;;;;;;;;;6286276;28;20131;-80
2023/12/13 06:09:02;;;;;;;0.20;0.20;;;;;;;;;;6291284;28;20036;-80
2023/12/13 06:12:05;;;;;;;0.20;0.20;;;;;;;;;;6291512;28;20115;-80
2023/12/13 06:15:06;;;;;;;0.20;0.20;;;;;;;;;;6278641;28;20059;-80
2023/12/13 06:18:06;;;;;;;0.20;0.20;;;;;;;;;;6287779;28;20020;-80
2023/12/13 06:21:07;;;;;;;0.20;0.20;;;;;;;;;;6283432;28;20051;-80
2023/12/13 06:24:07;;;;;;;0.20;0.20;;;;;;;;;;6283431;28;20028;-79
2023/12/13 06:27:07;;;;;;;0.20;0.20;;;;;;;;;;6290810;28;20046;-79
2023/12/13 06:30:08;;;;;;;0.20;0.20;;;;;;;;;;6277388;28;20044;-80
2023/12/13 06:33:08;;;;;;;0.20;0.20;;;;;;;;;;6302448;28;20031;-79
2023/12/13 06:36:08;;;;;;;0.20;0.20;;;;;;;;;;6288054;28;20914;-80
2023/12/13 06:39:11;;;;;;;0.20;0.20;;;;;;;;;;6271981;28;20478;-80
2023/12/13 06:42:12;;;;;;;0.20;0.20;;;;;;;;;;6291223;28;20329;-81
2023/12/13 06:45:12;;;;;;;0.17;0.17;;;;;;;;;;6289839;28;20024;-80
2023/12/13 06:48:12;;;;;;;0.20;0.20;;;;;;;;;;6291530;28;20020;-80
2023/12/13 06:51:12;;;;;;;0.20;0.20;;;;;;;;;;6298337;28;20013;-80
2023/12/13 06:54:13;;;;;;;0.20;0.20;;;;;;;;;;6275928;28;20012;-80
2023/12/13 06:57:13;;;;;;;0.20;0.20;;;;;;;;;;6271256;28;20384;-81
2023/12/13 07:00:14;;;;;;;0.20;0.20;;;;;;;;;;6294552;28;20394;-81
2023/12/13 07:03:14;;;;;;;0.20;0.20;;;;;;;;;;6295917;28;20360;-82
2023/12/13 07:06:16;;;;;;;0.20;0.20;;;;;;;;;;6294686;28;20024;-82
2023/12/13 07:09:18;;;;;;;;;;;;;;;;;;6291739;28;20102;-82
2023/12/13 07:12:18;;;;;;;0.20;0.20;;;;;;;;;;6279469;28;19908;-83
2023/12/13 07:15:18;;;;;;;0.20;0.20;;;;;;;;;;6287317;28;20118;-83
2023/12/13 07:18:21;;;;;;;0.20;0.20;;;;;;;;;;6288674;28;20036;-83
2023/12/13 07:21:21;;;;;;;0.20;0.20;;;;;;;;;;6293436;28;20088;-83
2023/12/13 07:24:22;;;;;;;0.20;0.20;;;;;;;;;;6293983;28;20032;-83
2023/12/13 07:27:22;;;;;;;0.20;0.20;;;;;;;;;;6297287;28;20103;-83
2023/12/13 07:30:23;;;;;;;0.20;0.20;;;;;;;;;;6293484;28;20008;-83
2023/12/13 07:33:23;;;;;;;0.20;0.20;;;;;;;;;;6295470;28;20492;-83
2023/12/13 07:36:24;;;;;;;0.20;0.20;;;;;;;;;;6298039;28;20056;-83
2023/12/13 07:39:24;;;;;;;0.20;0.20;;;;;;;;;;6291749;28;20027;-83
2023/12/13 07:42:25;;;;;;;0.20;0.20;;;;;;;;;;6259870;28;20495;-83
2023/12/13 07:45:25;;;;;;;0.20;0.20;;;;;;;;;;6272874;28;20028;-83
2023/12/13 07:48:25;;;;;;;0.20;0.20;;;;;;;;;;6272159;28;20019;-83
2023/12/13 07:51:25;;;;;;;0.20;0.20;;;;;;;;;;6276495;28;20413;-82
2023/12/13 07:54:26;;;;;;;0.20;0.20;;;;;;;;;;6313366;28;20016;-88
2023/12/13 07:57:26;;;;;;;0.20;0.20;;;;;;;;;;6293120;28;20054;-88
2023/12/13 08:00:27;;;;;;;0.20;0.20;;;;;;;;;;6294727;28;20100;-88
2023/12/13 08:03:28;;;;;;;0.20;0.20;;;;;;;;;;6310577;28;20402;-88
2023/12/13 08:06:28;;;;;;;0.20;0.20;;;;;;;;;;6316147;28;20017;-87
2023/12/13 08:09:30;;;;;;;0.20;0.20;;;;;;;;;;6296536;28;20474;-87
2023/12/13 08:12:30;;;;;;;0.20;0.20;;;;;;;;;;6316111;28;20021;-87
2023/12/13 08:15:30;;;;;;;0.20;0.20;;;;;;;;;;6299622;28;20532;-87
2023/12/13 08:18:31;;;;;;;0.20;0.20;;;;;;;;;;6317851;28;20030;-86
2023/12/13 08:21:31;;;;;;;0.20;0.20;;;;;;;;;;6301481;28;20034;-88
2023/12/13 08:24:32;;;;;;;0.20;0.20;;;;;;;;;;6292996;28;20471;-88
2023/12/13 08:27:32;;;;;;;0.20;0.20;;;;;;;;;;6324202;28;20044;-87
2023/12/13 08:30:33;;;;;;;0.20;0.20;;;;;;;;;;6306430;28;20063;-87
2023/12/13 08:33:33;;;;;;;0.20;0.20;;;;;;;;;;6293223;28;20038;-87
2023/12/13 08:36:34;;;;;;;0.20;0.20;;;;;;;;;;6307455;28;20032;-88
2023/12/13 08:39:34;;;;;;;0.20;0.20;;;;;;;;;;6317368;28;20035;-87
2023/12/13 08:42:34;;;;;;;0.10;0.10;;;;;;;;;;6305326;28;20032;-87
2023/12/13 08:45:34;;;;;;;0.20;0.20;;;;;;;;;;6306693;28;20005;-88
2023/12/13 08:48:35;;;;;;;0.20;0.20;;;;;;;;;;6310050;28;20084;-87
2023/12/13 08:51:36;;;;;;;0.20;0.20;;;;;;;;;;6294847;28;20021;-83
2023/12/13 08:54:36;;;;;;;0.20;0.20;;;;;;;;;;6322064;28;20466;-87
2023/12/13 08:57:38;;;;;;;0.17;0.17;;;;;;;;;;6297808;28;20017;-87
2023/12/13 09:00:38;;;;;;;0.20;0.20;;;;;;;;;;6308875;28;20020;-87
2023/12/13 09:03:38;;;;;;;0.20;0.20;;;;;;;;;;6289167;28;20047;-81
2023/12/13 09:06:39;;;;;;;0.10;0.10;;;;;;;;;;6293706;28;20070;-81
2023/12/13 09:09:39;;;;;;;0.20;0.20;;;;;;;;;;6294486;28;20008;-82
2023/12/13 09:12:39;;;;;;;0.20;0.20;;;;;;;;;;6272875;28;20005;-87
2023/12/13 09:15:40;;;;;;;0.20;0.20;;;;;;;;;;6306775;28;20023;-87
2023/12/13 09:18:43;;;;;;;0.10;0.10;;;;;;;;;;6304550;28;20009;-88
2023/12/13 09:21:44;;;;;;;0.20;0.20;;;;;;;;;;6307581;28;20004;-87
2023/12/13 09:24:44;;;;;;;0.20;0.20;;;;;;;;;;6322954;28;20023;-87
2023/12/13 09:27:46;;;;;;;0.20;0.20;;;;;;;;;;6335115;28;20020;-87
2023/12/13 09:30:46;;;;;;;0.20;0.20;;;;;;;;;;6307037;28;20038;-88
2023/12/13 09:33:47;;;;;;;0.10;0.10;;;;;;;;;;6305932;28;20012;-87
2023/12/13 09:36:48;;;;;;;0.20;0.20;;;;;;;;;;6310418;28;20016;-87
2023/12/13 09:39:48;;;;;;;0.10;0.10;;;;;;;;;;6341154;28;20013;-87
2023/12/13 09:42:49;;;;;;;0.20;0.20;;;;;;;;;;6310655;28;20043;-87
2023/12/13 09:45:51;;;;;;;0.20;0.20;;;;;;;;;;6306642;28;20016;-87
2023/12/13 09:48:51;;;;;;;;;;;;;;;;;;6310667;28;20021;-87
2023/12/13 09:51:52;;;;;;;0.20;0.20;;;;;;;;;;6321863;28;19930;-88
2023/12/13 09:54:53;;;;;;;0.20;0.20;;;;;;;;;;6305089;28;20014;-88
2023/12/13 09:57:54;;;;;;;0.20;0.20;;;;;;;;;;6301409;28;20058;-88
2023/12/13 10:00:54;;;;;;;0.20;0.20;;;;;;;;;;6298232;28;20036;-88
2023/12/13 10:03:54;;;;;;;0.13;0.13;;;;;;;;;;6305093;28;20079;-87
2023/12/13 10:06:55;;;;;;;0.20;0.20;;;;;;;;;;6305929;28;20108;-88
2023/12/13 10:09:56;;;;;;;0.20;0.20;;;;;;;;;;6306997;28;20044;-88
2023/12/13 10:12:57;;;;;;;0.20;0.20;;;;;;;;;;6300859;28;20027;-88
2023/12/13 10:16:07;;;;;;;0.20;0.20;;;;;;;;;;6287214;28;20040;-88
2023/12/13 10:19:07;;;;;;;0.20;0.20;;;;;;;;;;6333243;28;20035;-88
2023/12/13 10:22:08;;;;;;;0.20;0.20;;;;;;;;;;6324901;28;20017;-88
2023/12/13 10:25:08;;;;;;;0.10;0.10;;;;;;;;;;6299830;28;20024;-89
2023/12/13 10:28:09;;;;;;;0.20;0.20;;;;;;;;;;6309534;28;20021;-89
2023/12/13 10:31:09;;;;;;;0.20;0.20;;;;;;;;;;6304823;28;20036;-87
2023/12/13 10:34:09;;;;;;;0.17;0.17;;;;;;;;;;6296051;28;20080;-87
2023/12/13 10:37:10;;;;;;;0.17;0.17;;;;;;;;;;6300992;28;20453;-88
2023/12/13 10:40:12;;;;;;;0.20;0.20;;;;;;;;;;6322410;28;20027;-88
2023/12/13 10:43:14;;;;;;;0.20;0.20;;;;;;;;;;6290059;28;20029;-88
2023/12/13 10:46:16;;;;;;;0.10;0.10;;;;;;;;;;6306410;28;20025;-89
2023/12/13 10:49:17;;;;;;;0.10;0.10;;;;;;;;;;6284542;28;20055;-89
2023/12/13 10:52:18;;;;;;;0.15;0.15;;;;;;;;;;6280565;28;20438;-87
2023/12/13 10:55:19;;;;;;;0.20;0.20;;;;;;;;;;6287604;28;20144;-88
2023/12/13 10:58:20;;;;;;;0.20;0.20;;;;;;;;;;6288194;28;20016;-87
2023/12/13 11:01:21;;;;;;;0.20;0.20;;;;;;;;;;6293190;28;20024;-89
2023/12/13 11:04:22;;;;;;;0.20;0.20;;;;;;;;;;6297323;28;20056;-88
2023/12/13 11:07:22;;;;;;;0.10;0.10;;;;;;;;;;6303153;28;20028;-88
2023/12/13 11:10:22;;;;;;;0.20;0.20;;;;;;;;;;6284379;28;20542;-88
2023/12/13 11:13:23;;;;;;;0.20;0.20;;;;;;;;;;6296762;28;20522;-88
2023/12/13 11:16:24;;;;;;;0.20;0.20;;;;;;;;;;6290021;28;20459;-89
2023/12/13 11:19:25;;;;;;;0.10;0.10;;;;;;;;;;6256600;28;20020;-88
2023/12/13 11:22:26;;;;;;;0.13;0.13;;;;;;;;;;6295953;28;20466;-82
2023/12/13 11:25:36;;;;;;;0.10;0.10;;;;;;;;;;6291822;28;20150;-81
2023/12/13 11:28:37;;;;;;;0.10;0.10;;;;;;;;;;6301850;28;20428;-81
2023/12/13 11:31:37;;;;;;;0.10;0.10;;;;;;;;;;6295579;28;20035;-82
2023/12/13 11:34:43;;;;;;;0.10;0.10;;;;;;;;;;6290970;28;20029;-88
2023/12/13 11:37:49;;;;;;;0.10;0.10;;;;;;;;;;6289942;28;20028;-88
2023/12/13 11:40:49;;;;;;;0.20;0.20;;;;;;;;;;6294972;28;20051;-88
2023/12/13 11:43:50;;;;;;;0.20;0.20;;;;;;;;;;6295527;28;20025;-81
2023/12/13 11:46:54;;;;;;;0.17;0.17;;;;;;;;;;6277388;28;20035;-81
2023/12/13 11:49:54;;;;;;;0.10;0.10;;;;;;;;;;6294788;28;20021;-81
2023/12/13 11:52:54;;;;;;;0.10;0.10;;;;;;;;;;6298020;28;20096;-81
2023/12/13 11:55:56;;;;;;;0.10;0.10;;;;;;;;;;6298471;28;20099;-81
2023/12/13 11:58:56;;;;;;;0.10;0.10;;;;;;;;;;6293783;28;20051;-81
2023/12/13 12:02:00;;;;;;;0.10;0.10;;;;;;;;;;6263024;28;20376;-81
2023/12/13 12:05:06;;;;;;;0.20;0.20;;;;;;;;;;6293766;28;20459;-81
2023/12/13 12:08:06;;;;;;;0.20;0.20;;;;;;;;;;6294131;28;20580;-81
2023/12/13 12:11:07;;;;;;;0.10;0.10;;;;;;;;;;6294796;28;20031;-81
2023/12/13 12:14:08;;;;;;;0.10;0.10;;;;;;;;;;6278662;28;20029;-81
2023/12/13 12:17:09;;;;;;;0.10;0.10;;;;;;;;;;6277364;28;20028;-81
2023/12/13 12:20:09;;;;;;;0.10;0.10;;;;;;;;;;6269962;28;20031;-81
2023/12/13 12:23:10;;;;;;;0.10;0.10;;;;;;;;;;6295769;28;20448;-81
2023/12/13 12:26:11;;;;;;;0.10;0.10;;;;;;;;;;6293979;28;20047;-81
2023/12/13 12:29:11;;;;;;;0.10;0.10;;;;;;;;;;6293385;28;20482;-81
2023/12/13 12:32:12;;;;;;;0.17;0.17;;;;;;;;;;6276280;28;20036;-81
2023/12/13 12:35:12;;;;;;;0.10;0.10;;;;;;;;;;6300234;28;20025;-81
2023/12/13 12:38:14;;;;;;;0.20;0.20;;;;;;;;;;6288465;28;20077;-80
2023/12/13 12:41:14;;;;;;;;;;;;;;;;;;6307012;28;20027;-81
2023/12/13 12:44:14;;;;;;;0.10;0.10;;;;;;;;;;6294294;28;19909;-81
2023/12/13 12:47:15;;;;;;;0.10;0.10;;;;;;;;;;6276256;28;20094;-81
2023/12/13 12:50:15;;;;;;;0.20;0.20;;;;;;;;;;6292790;28;20016;-81
2023/12/13 12:53:15;;;;;;;0.10;0.10;;;;;;;;;;6294657;28;20028;-81
2023/12/13 12:56:15;;;;;;;0.10;0.10;;;;;;;;;;6294081;28;20027;-82
2023/12/13 12:59:16;;;;;;;0.10;0.10;;;;;;;;;;6290168;28;20020;-82
2023/12/13 13:02:17;;;;;;;0.10;0.10;;;;;;;;;;6275750;28;20056;-82
2023/12/13 13:05:17;;;;;;;0.10;0.10;;;;;;;;;;6268753;28;20410;-82
2023/12/13 13:08:17;;;;;;;0.20;0.20;;;;;;;;;;6300965;28;20020;-82
2023/12/13 13:11:18;;;;;;;0.17;0.17;;;;;;;;;;6275538;28;20096;-81
2023/12/13 13:14:19;;;;;;;0.10;0.10;;;;;;;;;;6303981;28;20082;-81
2023/12/13 13:17:20;;;;;;;0.13;0.13;;;;;;;;;;6285326;28;20028;-81
2023/12/13 13:20:20;;;;;;;0.20;0.20;;;;;;;;;;6311028;28;20070;-81
2023/12/13 13:23:21;;;;;;;0.10;0.10;;;;;;;;;;6295796;28;20044;-81
2023/12/13 13:26:22;;;;;;;0.20;0.20;;;;;;;;;;6292875;28;20047;-81
2023/12/13 13:29:22;;;;;;;0.10;0.10;;;;;;;;;;6306237;28;20389;-81
2023/12/13 13:32:22;;;;;;;0.10;0.10;;;;;;;;;;6275517;28;20025;-81
2023/12/13 13:35:24;;;;;;;0.20;0.20;;;;;;;;;;6297418;28;20020;-81
2023/12/13 13:38:24;;;;;;;;;;;;;;;;;;6269051;28;20029;-81
2023/12/13 13:41:26;;;;;;;0.20;0.20;;;;;;;;;;6291873;28;19909;-81
2023/12/13 13:44:26;;;;;;;0.10;0.10;;;;;;;;;;6292219;28;20092;-82
2023/12/13 13:47:26;;;;;;;0.10;0.10;;;;;;;;;;6287998;28;20023;-82
2023/12/13 13:50:27;;;;;;;0.10;0.10;;;;;;;;;;6287577;28;20066;-82
2023/12/13 13:53:27;;;;;;;0.10;0.10;;;;;;;;;;6289697;28;20113;-82
2023/12/13 13:56:27;;;;;;;0.17;0.17;;;;;;;;;;6291718;28;20479;-82
2023/12/13 13:59:28;;;;;;;0.10;0.10;;;;;;;;;;6295403;28;20048;-82
2023/12/13 14:02:31;;;;;;;0.20;0.20;;;;;;;;;;6294115;28;20075;-88
2023/12/13 14:05:34;;;;;;;0.20;0.20;;;;;;;;;;6272791;28;20045;-86
2023/12/13 14:08:35;;;;;;;0.20;0.20;;;;;;;;;;6293305;28;20534;-86
2023/12/13 14:11:35;;;;;;;0.20;0.20;;;;;;;;;;6272227;28;20020;-86
2023/12/13 14:14:36;;;;;;;0.20;0.20;;;;;;;;;;6290843;28;20021;-86
2023/12/13 14:17:36;;;;;;;0.20;0.20;;;;;;;;;;6290970;28;20025;-86
2023/12/13 14:20:36;;;;;;;0.20;0.20;;;;;;;;;;6299255;28;20562;-86
2023/12/13 14:23:36;;;;;;;0.20;0.20;;;;;;;;;;6272463;28;20045;-86
2023/12/13 14:26:37;;;;;;;0.20;0.20;;;;;;;;;;6274625;28;20020;-86
2023/12/13 14:29:37;;;;;;;0.20;0.20;;;;;;;;;;6277720;28;20016;-87
2023/12/13 14:32:37;;;;;;;0.20;0.20;;;;;;;;;;6272720;28;20032;-87
2023/12/13 14:35:37;;;;;;;0.20;0.20;;;;;;;;;;6291215;28;20021;-87
2023/12/13 14:38:39;;;;;;;0.20;0.20;;;;;;;;;;6266049;28;20021;-86
2023/12/13 14:41:39;;;;;;;0.20;0.20;;;;;;;;;;6290123;28;20577;-87
2023/12/13 14:44:40;;;;;;;0.20;0.20;;;;;;;;;;6292992;28;20020;-87
2023/12/13 14:47:40;;;;;;;0.20;0.20;;;;;;;;;;6272875;28;20512;-87
2023/12/13 14:50:42;;;;;;;0.20;0.20;;;;;;;;;;6295772;28;20035;-87
2023/12/13 14:53:43;;;;;;;0.17;0.17;;;;;;;;;;6280073;28;20028;-80
2023/12/13 14:56:43;;;;;;;0.20;0.20;;;;;;;;;;6290111;28;20130;-80
2023/12/13 14:59:43;;;;;;;0.20;0.20;;;;;;;;;;6279916;28;20024;-78
2023/12/13 15:02:44;;;;;;;0.20;0.20;;;;;;;;;;6286165;28;20080;-79
2023/12/13 15:05:44;;;;;;;0.17;0.17;;;;;;;;;;6290383;28;20052;-79
2023/12/13 15:08:44;;;;;;;0.20;0.20;;;;;;;;;;6271464;28;20032;-79
2023/12/13 15:11:45;;;;;;;0.20;0.20;;;;;;;;;;6292713;28;20537;-79
2023/12/13 15:14:45;;;;;;;0.20;0.20;;;;;;;;;;6276093;28;20513;-79
2023/12/13 15:17:46;;;;;;;0.20;0.20;;;;;;;;;;6267080;28;20025;-79
2023/12/13 15:20:46;;;;;;;0.20;0.20;;;;;;;;;;6301551;28;20547;-79
2023/12/13 15:23:47;;;;;;;0.20;0.20;;;;;;;;;;6290536;28;20025;-85
2023/12/13 15:26:47;;;;;;;0.20;0.20;;;;;;;;;;6284936;28;20467;-85
2023/12/13 15:29:47;;;;;;;0.20;0.20;;;;;;;;;;6270990;28;20019;-85
2023/12/13 15:32:47;;;;;;;0.10;0.10;;;;;;;;;;6291483;28;20443;-85
2023/12/13 15:35:48;;;;;;;0.20;0.20;;;;;;;;;;6300923;28;20476;-85
2023/12/13 15:38:48;;;;;;;0.20;0.20;;;;;;;;;;6291242;28;20540;-86
2023/12/13 15:41:48;;;;;;;0.20;0.20;;;;;;;;;;6283724;28;20487;-85
2023/12/13 15:44:49;;;;;;;0.20;0.20;;;;;;;;;;6297852;28;20052;-85
2023/12/13 15:47:50;;;;;;;0.10;0.10;;;;;;;;;;6290931;28;20021;-85
2023/12/13 15:50:51;;;;;;;0.10;0.10;;;;;;;;;;6290551;28;20486;-86
2023/12/13 15:53:51;;;;;;;0.20;0.20;;;;;;;;;;6289184;28;20067;-86
2023/12/13 15:56:51;;;;;;;0.17;0.17;;;;;;;;;;6276811;28;20016;-86
2023/12/13 15:59:52;;;;;;;0.20;0.20;;;;;;;;;;6272577;28;20092;-85
2023/12/13 16:02:52;;;;;;;0.20;0.20;;;;;;;;;;6294604;28;20028;-79
2023/12/13 16:05:52;;;;;;;0.20;0.20;;;;;;;;;;6298059;28;20072;-79
2023/12/13 16:08:52;;;;;;;0.20;0.20;;;;;;;;;;6282162;28;20051;-79
2023/12/13 16:11:53;;;;;;;0.10;0.10;;;;;;;;;;6273757;28;20060;-80
2023/12/13 16:14:54;;;;;;;0.20;0.20;;;;;;;;;;6293943;28;20024;-80
2023/12/13 16:17:54;;;;;;;0.20;0.20;;;;;;;;;;6295567;28;20459;-80
2023/12/13 16:20:54;;;;;;;0.20;0.20;;;;;;;;;;6293924;28;20537;-80
2023/12/13 16:23:55;;;;;;;0.20;0.20;;;;;;;;;;6294218;28;20418;-80
2023/12/13 16:26:56;;;;;;;0.20;0.20;;;;;;;;;;6276033;28;20020;-79
2023/12/13 16:29:56;;;;;;;0.20;0.20;;;;;;;;;;6277529;28;20012;-79
2023/12/13 16:32:57;;;;;;;0.20;0.20;;;;;;;;;;6297386;28;20024;-79
2023/12/13 16:35:57;;;;;;;0.10;0.10;;;;;;;;;;6303570;28;20030;-79
2023/12/13 16:38:57;;;;;;;0.20;0.20;;;;;;;;;;6281592;28;20021;-79
2023/12/13 16:41:58;;;;;;;0.20;0.20;;;;;;;;;;6296087;28;20466;-79
2023/12/13 16:44:58;;;;;;;0.20;0.20;;;;;;;;;;6297631;28;20616;-79
2023/12/13 16:47:58;;;;;;;0.20;0.20;;;;;;;;;;6282993;28;20028;-79
2023/12/13 16:51:01;;;;;;;0.10;0.10;;;;;;;;;;6294305;28;20051;-79
2023/12/13 16:54:03;;;;;;;0.20;0.20;;;;;;;;;;6276114;28;20028;-85
2023/12/13 16:57:03;;;;;;;0.20;0.20;;;;;;;;;;6294327;28;20024;-85
2023/12/13 17:00:04;;;;;;;0.20;0.20;;;;;;;;;;6265204;28;20111;-85
2023/12/13 17:03:05;;;;;;;0.20;0.20;;;;;;;;;;6292855;28;20020;-85
2023/12/13 17:06:06;;;;;;;0.20;0.20;;;;;;;;;;6298749;28;20055;-85
2023/12/13 17:09:12;;;;;;;0.20;0.20;;;;;;;;;;6294265;28;20024;-85
2023/12/13 17:12:12;;;;;;;0.17;0.17;;;;;;;;;;6279857;28;20413;-85
2023/12/13 17:15:13;;;;;;;0.10;0.10;;;;;;;;;;6269330;28;20112;-85
2023/12/13 17:18:13;;;;;;;0.20;0.20;;;;;;;;;;6290487;28;20048;-85
2023/12/13 17:21:13;;;;;;;0.20;0.20;;;;;;;;;;6283197;28;20532;-85
2023/12/13 17:24:14;;;;;;;0.20;0.20;;;;;;;;;;6280689;28;20025;-85
2023/12/13 17:27:14;;;;;;;0.20;0.20;;;;;;;;;;6275500;28;20058;-85
2023/12/13 17:30:15;;;;;;;0.20;0.20;;;;;;;;;;6291094;28;20103;-85
2023/12/13 17:33:15;;;;;;;0.20;0.20;;;;;;;;;;6299597;28;20071;-85
2023/12/13 17:36:15;;;;;;;0.20;0.20;;;;;;;;;;6288414;28;20025;-85
2023/12/13 17:39:16;;;;;;;0.20;0.20;;;;;;;;;;6276507;28;20016;-85
2023/12/13 17:42:16;;;;;;;0.20;0.20;;;;;;;;;;6288727;28;20536;-86
2023/12/13 17:45:16;;;;;;;0.20;0.20;;;;;;;;;;6294337;28;20047;-85
2023/12/13 17:48:16;;;;;;;0.20;0.20;;;;;;;;;;6292908;28;20005;-85
2023/12/13 17:51:17;;;;;;;0.20;0.20;;;;;;;;;;6285983;28;20108;-85
2023/12/13 17:54:17;;;;;;;0.20;0.20;;;;;;;;;;6274240;28;20036;-86
2023/12/13 17:57:18;;;;;;;0.10;0.10;;;;;;;;;;6300498;28;20163;-86
2023/12/13 18:00:18;;;;;;;0.20;0.20;;;;;;;;;;6304740;28;20033;-86
2023/12/13 18:03:18;;;;;;;0.20;0.20;;;;;;;;;;6290409;28;20021;-86